Terminal Aerodrome Forecast
Issued by NWS Raleigh/Durham, NC

Current Version | Previous Version | Text Only | Print | Product List | Glossary On
Versions: 1 2 3 4 5 6 7 8 9 10 11 12 13 14 15 16 17 18 19 20 21 22
000 FTUS42 KRAH 232320 TAFRDU TAF KRDU 232320Z 2400/2424 35008KT P6SM BKN015 OVC030 TEMPO 2400/2404 36010G18KT 5SM -RA BR OVC009 FM240800 31005KT P6SM BKN035 FM241400 30010G20KT P6SM SCT025=

USA.gov is the U.S. government's official web portal to all federal, state and local government web resources and services.